Tiempo atmosférico en la estación meteorológica de Buitrago del Lozoya, Madrid (1026 m.)



Fecha
DESCASC
Temp. máxima en grados centígrados (hora)
DESCASC
Temp. mínima en grados centígrados (hora)
DESCASC
Temp. media en grados centígrados
DESCASC
Racha de viento máxima en m/sg (hora)
DESCASC
Velocidad máxima media en intervalos de 10 minutos(hora)
DESCASC
Precipitaciones diarias en mm
DESCASC
Precipitaciones de 00:00 a 06:00 en mm
DESCASC
Precipitaciones de 06:00 a 12:00 en mm
DESCASC
Precipitaciones de 12:00 a 18:00 en mm
DESCASC
Precipitaciones de 18:00 a 24:00 en mm
DESCASC
17-10-2019 14.5 (16:40) 4.6 (05:10) 9.5 5 (17:00) 2.78 (16:20) 2.7 0 1.1 0 1.6
16-10-2019 -- (--) -- (--) -- -- (--) -- (--) -- 0 -- 0 0
15-10-2019 14.5 (15:30) 6.1 (00:00) 10.3 10.83 (02:00) 5.28 (12:00) 0.1 0.1 0 0 0
14-10-2019 18.1 (14:30) 6.1 (23:59) 12.1 11.67 (12:30) 6.11 (12:20) 3.4 0 0 0 3.4
13-10-2019 -- (--) -- (--) -- -- (--) -- (--) -- -- -- 0 0
12-10-2019 22.5 (15:00) 13.2 (00:00) 17.8 6.39 (15:00) 3.33 (15:00) 2.9 0 0 0 2.9
11-10-2019 23.6 (16:10) 8.3 (00:00) 16 6.94 (16:00) 3.33 (17:10) 0 0 0 0 0
10-10-2019 21.6 (16:50) 6.6 (00:00) 14.1 3.89 (13:50) 1.94 (14:40) 0 0 0 0 0
09-10-2019 24.4 (16:10) 10.7 (00:00) 17.5 9.17 (13:50) 4.44 (11:50) 0 0 0 0 0
08-10-2019 26.2 (16:30) 8.5 (00:00) 17.4 5.56 (17:00) 2.22 (14:50) 0 0 0 0 0
07-10-2019 25 (16:30) 12.2 (00:00) 18.6 8.61 (14:20) 3.61 (18:00) 0 0 0 0 0
06-10-2019 23.9 (16:30) 7.1 (00:00) 15.5 8.33 (18:00) 4.17 (14:30) 0 0 0 0 0
05-10-2019 24.9 (16:40) 7.7 (00:00) 16.3 4.44 (15:40) 2.22 (15:40) 0 0 0 0 0
04-10-2019 25 (16:40) 6.5 (00:00) 15.8 5.28 (16:20) 2.22 (17:40) 0 0 0 0 0
03-10-2019 23.1 (16:40) 6.2 (00:00) 14.7 10.83 (17:20) 5 (17:20) 0 0 0 0 0
02-10-2019 18.7 (16:30) 10.7 (00:00) 14.7 10.28 (03:50) 5 (09:00) 0 0 0 0 0
01-10-2019 -- (--) -- (--) -- -- (--) -- (--) -- -- -- 0 0
30-09-2019 -- (--) -- (--) -- -- (--) -- (--) -- 0 -- 0 0
29-09-2019 26.9 (16:20) 6.8 (00:00) 16.8 11.11 (13:30) 2.78 (18:20) 0 0 0 0 0
28-09-2019 -- (--) -- (--) -- -- (--) -- (--) 0 0 0 0 0
27-09-2019 25.4 (15:20) 8.6 (00:00) 17 8.61 (17:40) 4.44 (17:10) 0 0 0 0 0
26-09-2019 -- (--) -- (--) -- -- (--) -- (--) -- 0 0 -- 0
25-09-2019 20.9 (16:10) 12.1 (00:00) 16.5 10.28 (02:40) 5.83 (03:10) 0 0 0 0 0
24-09-2019 22.1 (13:20) 8.2 (00:00) 15.2 11.94 (21:10) 5.83 (21:10) 0 0 0 0 0
23-09-2019 20.8 (17:00) 6.6 (00:00) 13.7 5 (15:10) 1.94 (15:40) 0 0 0 0 0
22-09-2019 19.1 (17:00) 10.7 (00:00) 14.9 9.44 (16:10) 5 (16:00) 0.9 0 0.9 0 0
21-09-2019 17.2 (13:40) 11.5 (00:00) 14.4 7.5 (14:50) 3.61 (14:00) 11.4 10.4 0 0 1
20-09-2019 21.6 (17:50) 11.7 (00:00) 16.7 9.17 (22:00) 5 (22:00) 49.4 0 0 0.1 49.3

Gráficas

Temp. máximas Temp. mínimas Temp. medias Precipitaciones Rachas de viento máximas Velocidades máximas media en intervalos de 10 minutos

Datos horarios

Fecha y hora oficial Temperatura (ºC) Velocidad del viento (km/h) Dirección del viento Racha (km/h) Dirección de racha Precipitación (mm) Presión (hPa) Tendencia (hPa) Humedad (%)
2019-10-19 23:00:00 11.2 0 Calma 6 Norte 5 892.1 -1.2 90
2019-10-19 22:00:00 11.2 0 Calma 8 Nordeste 4.4 892.2 -1.6 88
2019-10-19 21:00:00 11.5 3 Norte 9 Este 2.2 892.7 -1.7 85
2019-10-19 20:00:00 11.6 2 Sudeste 12 Sudeste 0 893.3 -1.2 84
2019-10-19 19:00:00 11.1 4 Este 16 Sur 0 893.8 -1.2 86
2019-10-19 18:00:00 11.4 4 Sur 26 Sudeste 0 894.4 -1.2 77
2019-10-19 17:00:00 12.5 9 Sudeste 31 Sur 0 894.5 -1.9 67
2019-10-19 16:00:00 13.5 11 Sudeste 26 Sudeste 0 895 -1.9 61
2019-10-19 15:00:00 12.6 11 Sudeste 26 Sudeste 0 895.6 -1.7 62
2019-10-19 14:00:00 12.5 12 Sudeste 26 Sur 0 896.4 -1.1 61
2019-10-19 13:00:00 11.3 8 Sudeste 25 Sudeste 0 896.9 -0.9 67
2019-10-19 12:00:00 11.2 13 Sudeste 25 Sudeste 0 897.3 -0.2 73
2019-10-19 11:00:00 10.6 9 Sudeste 19 Sudeste 0 897.5 -0.2 81
2019-10-19 10:00:00 9.4 5 Sudeste 11 Sudeste 0 897.8 0 88
2019-10-19 09:00:00 8.3 2 Sudeste 9 Sudeste 0 897.5 -0.8 89
2019-10-19 08:00:00 8.8 0 Calma 12 Sudeste 0 897.7 -0.6 89
2019-10-19 07:00:00 8.9 0 Calma 3 Este 0 897.8 -0.7 88
2019-10-19 06:00:00 9.5 0 Calma 9 Este 0 898.3 -0.9 87
2019-10-19 05:00:00 9.9 5 Este 11 Este 0 898.3 -1.2 87
2019-10-19 04:00:00 9.5 0 Calma 7 Sudeste 0 898.5 -1.3 88
2019-10-19 03:00:00 10.3 2 Este 10 Nordeste 0 899.2 -0.9 84
2019-10-19 02:00:00 10.4 5 Nordeste 10 Nordeste 0 899.5 -1.1 89
2019-10-19 01:00:00 8.9 0 Calma 7 Este 0 899.8 -0.8 86
2019-10-19 00:00:00 11.2 3 Este 8 Nordeste 0 900.1 -0.6 86
2019-10-18 23:00:00 10.5 0 Calma 4 Nordeste 0 900.6 0.2 81
2019-10-18 22:00:00 11.9 0 Calma 11 Este 0 900.6 0.2 75
2019-10-18 21:00:00 13.6 3 Este 9 Nordeste 0 900.7 -0.1 70
2019-10-18 20:00:00 14.6 4 Este 10 Sudeste 0 900.4 -0.9 68
2019-10-18 19:00:00 16.4 5 Sudeste 24 Sur 0 900.4 -1.4 68
2019-10-18 18:00:00 16.7 12 Sur 32 Sur 0 900.8 -1.3 67
2019-10-18 17:00:00 17.7 13 Sudeste 28 Sudeste 0 901.3 -1.7 63
2019-10-18 16:00:00 18.1 13 Sudeste 24 Sudeste 0 901.8 -1.7 62
2019-10-18 15:00:00 17.7 9 Sudeste 18 Sudeste 0 902.1 -1.5 70
2019-10-18 14:00:00 16.8 7 Sudeste 17 Sudeste 0 903 -0.5 73
2019-10-18 13:00:00 16.7 6 Sur 13 Sur 0 903.5 -0.3 65
2019-10-18 12:00:00 15 3 Sudeste 8 Este 0.1 903.6 0.4 81
2019-10-18 11:00:00 14.2 3 Sudoeste 14 Sudoeste 0 903.5 0.4 86
2019-10-18 10:00:00 13.1 0 Calma 6 Nordeste 0 903.8 0.6 92
2019-10-18 09:00:00 12.9 0 Calma 4 Nordeste 0.2 903.2 0 92
2019-10-18 08:00:00 12.5 0 Calma 2 Este 0 903.1 -0.3 92
2019-10-18 07:00:00 12.6 0 Calma 5 Sur 0.8 903.2 -0.5 93
2019-10-18 06:00:00 12.4 2 Norte 5 Norte 0 903.2 -1 92
2019-10-18 05:00:00 12.4 0 Calma 4 Nordeste 0 903.4 -1 93
2019-10-18 04:00:00 12.3 0 Calma 4 Este 0 903.7 -1.2 93
2019-10-18 03:00:00 12 0 Calma 4 Sudeste 0.1 904.2 -0.9 92
2019-10-18 02:00:00 12.3 0 Calma 4 Este 0.5 904.4 -1 92
2019-10-18 01:00:00 12.1 0 Calma 6 Sur 0.4 904.9 -0.1 92
2019-10-18 00:00:00 12.3 0 Calma 5 Sur 0 905.1 -0.2 91
2019-10-17 23:00:00 12.3 0 Calma 5 Oeste 0.3 905.4 0.5 89
2019-10-17 22:00:00 12.4 0 Calma 5 Este 1.3 905 0.3 85
2019-10-17 21:00:00 12.4 3 Sudeste 7 Sur 0 905.3 0.6 84
2019-10-17 20:00:00 12.4 4 Sudeste 11 Sudeste 0 904.9 0.2 83
2019-10-17 19:00:00 12.5 4 Este 14 Sudeste 0 904.7 0.1 81
2019-10-17 18:00:00 12.7 6 Sudeste 16 Sudeste 0 904.7 -0.1 77
2019-10-17 17:00:00 13.6 7 Sudeste 18 Sudeste 0 904.7 -0.9 72
2019-10-17 16:00:00 13.6 5 Sudeste 14 Sudeste 0 904.6 -1.1 72
2019-10-17 15:00:00 13.2 2 Este 12 Este 0 904.8 -0.9 76
2019-10-17 14:00:00 11.9 0 Calma 7 Sudeste 0 905.6 0.3 77
2019-10-17 13:00:00 11.1 3 Nordeste 8 Sudeste 0 905.7 0.6 77
2019-10-17 12:00:00 10.8 3 Sudeste 8 Sudeste 0.1 905.7 1.2 77
2019-10-17 11:00:00 9 0 Calma 5 Noroeste 0 905.3 1.1 91
2019-10-17 10:00:00 7.6 3 Oeste 6 Oeste 0.1 905.1 1.3 93
2019-10-17 09:00:00 7 0 Calma 5 Sudoeste 0.4 904.5 0.6 93
2019-10-17 08:00:00 6.6 2 Nordeste 8 Nordeste 0 904.2 0.4 93
2019-10-17 07:00:00 6.1 0 Calma 3 Noroeste 0.5 903.8 -0.2 93
2019-10-17 06:00:00 5.1 0 Calma 5 Noroeste 0 903.9 -0.4 92
2019-10-17 05:00:00 4.7 0 Calma 4 Noroeste 0 903.8 -0.8 90
2019-10-17 04:00:00 5.5 0 Calma 8 Oeste 0 904 -1.1 90
2019-10-17 03:00:00 5.4 0 Calma 4 Oeste 0 904.3 -0.9 90
2019-10-17 02:00:00 5.1 0 Calma 5 Noroeste 0 904.6 -0.5 89
2019-10-17 01:00:00 5.8 0 Calma 7 Oeste 0 905.1 0.5 87
2019-10-17 00:00:00 6.1 3 Noroeste 6 Noroeste 0 905.2 0.6 85
2019-10-16 23:00:00 7.1 3 Noroeste 6 Noroeste 0 905.1 0.8 80
2019-10-16 22:00:00 8.4 0 Calma 4 Nordeste 0 904.6 0.5 72
2019-10-16 21:00:00 10.8 0 Calma 7 Este 0 904.6 0.9 63
2019-10-16 20:00:00 12.6 3 Este 10 Sudeste 0 904.3 0.4 56
2019-10-16 19:00:00 14.5 0 Calma 13 Sudeste 0 904.1 -0.6 50
2019-10-16 18:00:00 15.4 7 Sudeste 15 Sur 0 903.7 -1.5 50
2019-10-16 17:00:00 15.1 7 Sudeste 20 Este 0 903.9 -1.9 51
2019-10-16 16:00:00 15.2 6 Sur 14 Sudeste 0 904.7 -1.5 50
2019-10-16 15:00:00 14.2 4 Sudeste 15 Este 0 905.2 -1.2 51
2019-10-16 14:00:00 12.5 9 Sudeste 16 Sudeste 0 905.8 -0.5 54
2019-10-16 13:00:00 12.5 10 Sudeste 17 Sudeste 0 906.2 -0.4 57
2019-10-16 12:00:00 12.4 8 Sur 15 Sudeste 0 906.4 0 60
2019-10-16 11:00:00 11.3 0 Calma 9 Noroeste 0 906.3 -- 62
2019-10-16 10:00:00 6.7 4 Oeste 8 Oeste 0 906.6 -- 84
2019-10-16 09:00:00 3.6 0 Calma -- -- -- 906.4 0.9 92
2019-10-16 08:00:00 -- -- -- -- -- -- -- -- --
2019-10-16 07:00:00 -- -- -- -- -- -- -- -- --
2019-10-16 06:00:00 3.9 3 Noroeste 4 Noroeste 0 905.5 -1 90
2019-10-16 05:00:00 4.6 0 Calma 7 Noroeste 0 905.8 -1 88
2019-10-16 04:00:00 5.3 0 Calma 4 Sudeste 0 906.1 -0.7 84
2019-10-16 03:00:00 6.4 3 Noroeste 5 Noroeste 0 906.5 -0.5 82
2019-10-16 02:00:00 7.5 0 Calma 4 Sur 0 906.8 -0.2 80
2019-10-16 01:00:00 7.4 2 Sur 5 Sur 0 906.8 0.1 76
2019-10-16 00:00:00 7.7 0 Calma 4 Noroeste 0 907 0.7 74
2019-10-15 23:00:00 7.5 4 Noroeste 6 Noroeste 0 907 0.8 72
2019-10-15 22:00:00 8 0 Calma 5 Noroeste 0 906.7 1 68
2019-10-15 21:00:00 8.6 0 Calma 9 Oeste 0 906.3 0.8 60
2019-10-15 20:00:00 10.5 6 Oeste 21 Oeste 0 906.2 0.6 52
2019-10-15 19:00:00 12.4 9 Noroeste 17 Oeste 0 905.7 0.5 47
2019-10-15 18:00:00 14 3 Oeste 17 Sur 0 905.5 -0.2 43
2019-10-15 17:00:00 13.4 7 Sur 16 Sur 0 905.6 -0.6 43
2019-10-15 16:00:00 14.3 4 Oeste 20 Sur 0 905.2 -1.4 43
2019-10-15 15:00:00 13.7 6 Sur 19 Noroeste 0 905.7 -1.2 43
2019-10-15 14:00:00 13.1 5 Noroeste 24 Oeste 0 906.2 -0.2 48
2019-10-15 13:00:00 11.4 12 Noroeste 35 Noroeste 0 906.6 0.5 52
2019-10-15 12:00:00 9.9 19 Noroeste 36 Noroeste 0 906.9 1.9 56
2019-10-15 11:00:00 9.3 11 Noroeste 23 Oeste 0 906.4 1.5 62
2019-10-15 10:00:00 7.1 9 Noroeste 29 Oeste 0 906.1 1.5 68
2019-10-15 09:00:00 7 15 Noroeste 32 Noroeste 0 905 0.5 68
2019-10-15 08:00:00 6.9 13 Noroeste 24 Noroeste 0 904.9 0.7 68
2019-10-15 07:00:00 6.7 7 Noroeste 23 Noroeste 0 904.6 0.4 70
2019-10-15 06:00:00 6.4 12 Noroeste 21 Noroeste 0 904.5 0.2 71
2019-10-15 05:00:00 6.7 8 Oeste 25 Oeste 0 904.2 0.3 68
2019-10-15 04:00:00 6.9 10 Oeste 27 Oeste 0 904.2 0.9 68
2019-10-15 03:00:00 7.1 15 Oeste 35 Oeste 0 904.3 1.2 67
2019-10-15 02:00:00 7.2 12 Oeste 39 Sudoeste 0 903.9 1.4 67
2019-10-15 01:00:00 7.3 9 Oeste 25 Oeste 0.1 903.3 1.5 72
2019-10-15 00:00:00 6.1 3 Noroeste 24 Noroeste 0 903.1 1.9 76
2019-10-14 23:00:00 6.7 4 Oeste 36 Noroeste 1 902.5 1.4 81
2019-10-14 22:00:00 8.2 7 Oeste 21 Noroeste 0 901.8 1.1 72
2019-10-14 21:00:00 7.5 2 Noroeste 9 Norte 0 901.2 1.4 84
2019-10-14 20:00:00 7.8 0 Calma 12 Sur 1.1 901.1 3.1 81
2019-10-14 19:00:00 8.8 5 Oeste 31 Oeste 1.3 900.7 2.9 73
2019-10-14 18:00:00 10.9 19 Oeste 37 Noroeste 0 899.8 1.6 62
2019-10-14 17:00:00 16.7 17 Sur 36 Sur 0 898 -0.9 40
2019-10-14 16:00:00 17.3 19 Sur 39 Sur 0 897.8 -1.8 38
2019-10-14 15:00:00 17.4 18 Sur 32 Sudeste 0 898.2 -1.1 45
2019-10-14 14:00:00 17.1 19 Sur 41 Sudoeste 0 898.9 -0.6 46
2019-10-14 13:00:00 16.8 14 Sur 42 Sur 0 899.6 0.8 65
2019-10-14 12:00:00 16 18 Sur 38 Sur 0 899.3 1.2 61
2019-10-14 11:00:00 16.7 11 Sudoeste 32 Sur 0 899.5 1.3 56
2019-10-14 10:00:00 15.8 9 Sur 31 Sudeste 0 898.8 0.8 63
2019-10-14 09:00:00 14.2 5 Norte 13 Nordeste 0 898.1 -0.2 72
2019-10-14 08:00:00 14.5 5 Norte 9 Noroeste 0 898.2 0 71
2019-10-14 07:00:00 14.4 2 Sudeste 12 Sudeste 0 898 -0.5 65
2019-10-14 06:00:00 14.9 6 Sudeste 19 Sudeste 0 898.3 -1.5 57
2019-10-14 05:00:00 14.7 11 Sudeste 23 Sudeste 0 898.2 -2.3 60
2019-10-14 04:00:00 10.3 3 Este 7 Este 0 898.5 -2.8 88
2019-10-14 03:00:00 9.6 0 Calma 4 Este 0 899.8 -2.1 84
2019-10-14 02:00:00 10.7 3 Oeste 8 Oeste 0 900.5 -2 82
2019-10-14 01:00:00 10 0 Calma 10 Noroeste 0 901.3 -1.3 81
2019-10-14 00:00:00 10.7 0 Calma 9 Este 0 901.9 -0.6 76
2019-10-13 23:00:00 11.5 0 Calma 9 Sur 0 902.5 0.4 74
2019-10-13 22:00:00 13 0 Calma 11 Noroeste 0 902.6 0.3 64
2019-10-13 21:00:00 14.5 4 Noroeste 15 Sur 0 902.5 0.2 57
2019-10-13 20:00:00 16.8 7 Sudeste 16 Sur 0 902.1 -0.5 50
2019-10-13 19:00:00 19.2 6 Sur 17 Sur 0 902.3 -0.1 43
2019-10-13 18:00:00 19.4 7 Sur 31 Sudeste 0 902.3 -0.6 45
2019-10-13 17:00:00 19.6 13 Sudeste 27 Sudeste 0 902.6 -1 45
2019-10-13 16:00:00 19.3 15 Sudeste 30 Sudeste 0 902.4 -1.4 52
2019-10-13 15:00:00 19.3 14 Sudeste 24 Sudeste 0 902.9 -1.1 51
2019-10-13 14:00:00 18.3 10 Sur 28 Sudeste 0 903.6 -0.2 54
2019-10-13 13:00:00 17.6 11 Sudeste 25 Sudeste 0 903.8 0.2 65
2019-10-13 12:00:00 17.1 10 Sudeste 23 Sudeste 0 904 1 74
2019-10-13 11:00:00 16.7 8 Sudeste 21 Sudeste 0 903.8 -- 76
2019-10-13 10:00:00 14.7 4 Sudeste 12 Sudeste 0 903.6 -- 85
2019-10-13 09:00:00 13.3 4 Nordeste 9 Nordeste 0 903 -- 87
2019-10-13 08:00:00 -- -- -- -- -- -- -- -- --
2019-10-13 07:00:00 -- -- -- -- -- -- -- -- --
2019-10-13 06:00:00 -- 0 Calma -- -- -- -- -- --
2019-10-13 05:00:00 11.4 0 Calma 6 Noroeste 0 902.8 -- 92
2019-10-13 04:00:00 10.9 0 Calma 8 Oeste 0 903.3 -1.1 91
2019-10-13 03:00:00 11.2 2 Oeste -- -- -- 903.5 -1.8 90
2019-10-13 02:00:00 -- -- -- -- -- 0 -- -- --
2019-10-13 01:00:00 12.8 2 Sur 8 Noroeste 0 904.4 -0.6 88
2019-10-13 00:00:00 13.3 2 Sudoeste 13 Noroeste 0 905.3 1.6 85
2019-10-12 23:00:00 14 5 Este 14 Este 0.2 905.3 2.2 82
2019-10-12 22:00:00 14.7 0 Calma 21 Sur 2.5 905 1.9 85
2019-10-12 21:00:00 16.8 4 Sudeste 14 Noroeste 0 903.7 0.3 69
2019-10-12 20:00:00 17.6 3 Oeste 10 Oeste 0 903.1 -0.6 66
2019-10-12 19:00:00 19.6 3 Norte 13 Norte 0.2 903.1 -0.8 56
2019-10-12 18:00:00 20.5 4 Nordeste 12 Sudeste 0 903.4 -0.9 51
2019-10-12 17:00:00 20.5 5 Sudeste 18 Sudeste 0 903.7 -1.4 53
2019-10-12 16:00:00 21.5 2 Sudeste 19 Sudeste 0 903.9 -1.5 49
2019-10-12 15:00:00 22.1 12 Sudeste 23 Sur 0 904.3 -1.5 46
2019-10-12 14:00:00 20.7 5 Sudeste 16 Sudeste 0 905.1 -0.7 51
2019-10-12 13:00:00 19.6 2 Sudeste 11 Sur 0 905.4 0.2 59
2019-10-12 12:00:00 18.1 0 Calma 9 Oeste 0 905.8 0.8 71
2019-10-12 11:00:00 16.3 3 Oeste 10 Oeste 0 905.8 1.1 83
2019-10-12 10:00:00 14.5 3 Nordeste 9 Noroeste 0 905.2 0.7 84
2019-10-12 09:00:00 13.8 0 Calma -- -- 0 905 0.2 86
2019-10-12 08:00:00 14 0 Calma -- -- 0 904.7 0.1 84
2019-10-12 07:00:00 14.3 0 Calma 5 Noroeste 0 904.5 -0.3 80
2019-10-12 06:00:00 15.1 0 Calma 6 Nordeste 0 904.8 -0.4 76
2019-10-12 05:00:00 14.8 0 Calma 7 Este 0 904.6 -0.7 80
2019-10-12 04:00:00 15.1 5 Noroeste 7 Noroeste 0 904.8 -0.4 85
2019-10-12 03:00:00 16.4 0 Calma 6 Noroeste 0 905.2 -0.8 81
2019-10-12 02:00:00 16 0 Calma 7 Oeste 0 905.3 -0.4 81
2019-10-12 01:00:00 16.2 0 Calma 4 Norte 0 905.2 -0.2 81
2019-10-12 00:00:00 16.3 0 Calma 11 Sudoeste 0 906 0.8 80
2019-10-11 23:00:00 16.2 0 Calma 4 Nordeste 0 905.7 0.6 77
2019-10-11 22:00:00 16.7 0 Calma 7 Noroeste 0 905.4 0.2 73
2019-10-11 21:00:00 17.1 4 Noroeste 5 Noroeste 0 905.2 -0.1 68
2019-10-11 20:00:00 19.4 0 Calma 11 Sudeste 0 905.1 -0.5 58
2019-10-11 19:00:00 21 6 Sudeste 14 Sudeste 0 905.2 -0.8 54
2019-10-11 18:00:00 21.7 6 Sudeste 19 Sur 0 905.3 -1.3 51
2019-10-11 17:00:00 22.7 8 Sudeste 20 Sudeste 0 905.6 -2 49
2019-10-11 16:00:00 23 12 Sudeste 25 Sudeste 0 906 -2.3 48
2019-10-11 15:00:00 22.6 8 Este 18 Sudeste 0 906.6 -2.1 50
2019-10-11 14:00:00 22.2 8 Sudeste 16 Sudeste 0 907.6 -1.2 53
2019-10-11 13:00:00 20.9 4 Sudeste 10 Sudeste 0 908.3 -0.1 54
2019-10-11 12:00:00 19.4 0 Calma 7 Sudeste 0 908.7 0.7 60
2019-10-11 11:00:00 16.8 0 Calma 4 Sudeste 0 908.8 1.1 68
2019-10-11 10:00:00 12.5 0 Calma 6 Oeste 0 908.4 0.9 87
2019-10-11 09:00:00 9.5 3 Oeste 7 Oeste 0 908 0.7 93
2019-10-11 08:00:00 8.4 3 Noroeste 4 Noroeste 0 907.7 0.2 92
2019-10-11 07:00:00 8.8 0 Calma 7 Oeste 0 907.5 -0.1 92
2019-10-11 06:00:00 9 2 Norte 6 Oeste 0 907.3 -0.4 92
2019-10-11 05:00:00 10.3 3 Oeste 8 Oeste 0 907.5 -0.3 93
2019-10-11 04:00:00 10.4 0 Calma 8 Noroeste 0 907.6 -0.3 93
2019-10-11 03:00:00 10 5 Noroeste 7 Noroeste 0 907.7 -0.2 92
2019-10-11 02:00:00 11.4 6 Noroeste 11 Noroeste 0 907.8 0.2 93
2019-10-11 01:00:00 10.9 0 Calma 5 Noroeste 0 907.9 0.2 91
2019-10-11 00:00:00 11.7 0 Calma 5 Oeste 0 907.9 0.9 88
2019-10-10 23:00:00 12.3 0 Calma 4 Norte 0 907.6 0.9 86
2019-10-10 22:00:00 13.2 3 Noroeste 4 Noroeste 0 907.7 1 80
2019-10-10 21:00:00 15.8 0 Calma 8 Noroeste 0 907 0.6 71
2019-10-10 20:00:00 17.5 0 Calma 5 Sudeste 0 906.7 0.2 63
2019-10-10 19:00:00 20.9 3 Este 9 Este 0 906.7 -0.1 54
2019-10-10 18:00:00 21.3 2 Este 11 Este 0 906.4 -0.9 54
2019-10-10 17:00:00 21.1 4 Este 12 Este 0 906.5 -1.6 54
2019-10-10 16:00:00 21.2 3 Este 13 Este 0 906.8 -1.7 55
2019-10-10 15:00:00 19.7 5 Este 14 Este 0 907.3 -1.4 60
2019-10-10 14:00:00 18.6 5 Este 14 Este 0 908.1 -0.5 64
2019-10-10 13:00:00 17.4 4 Este 10 Este 0 908.5 0.6 62
2019-10-10 12:00:00 15.2 2 Este 8 Este 0 908.7 1.1 65
2019-10-10 11:00:00 15.3 3 Sur 6 Sur 0 908.6 1.4 63
2019-10-10 10:00:00 13 0 Calma 6 Norte 0 907.9 0.8 73
2019-10-10 09:00:00 8.6 4 Oeste 9 Oeste 0 907.6 1 90
2019-10-10 08:00:00 6.9 0 Calma 7 Oeste 0 907.2 0.7 92
2019-10-10 07:00:00 6.7 3 Noroeste 5 Noroeste 0 907.1 0.8 90
2019-10-10 06:00:00 7.3 0 Calma 8 Noroeste 0 906.6 0 87
2019-10-10 05:00:00 8 3 Noroeste 8 Oeste 0 906.5 0 86
2019-10-10 04:00:00 8.4 2 Norte 7 Noroeste 0 906.3 -0.3 82
2019-10-10 03:00:00 9.9 3 Oeste 9 Oeste 0 906.6 0.5 76
2019-10-10 02:00:00 9.7 6 Oeste 9 Oeste 0 906.5 0.7 77
2019-10-10 01:00:00 11.1 0 Calma 8 Noroeste 0 906.6 1.2 71
2019-10-10 00:00:00 12 4 Noroeste 10 Oeste 0 906.1 0.8 70
2019-10-09 23:00:00 12.5 0 Calma 8 Oeste 0 905.8 0.8 63
2019-10-09 22:00:00 13.4 0 Calma 6 Noroeste 0 905.4 0.8 58
2019-10-09 21:00:00 16.5 3 Noroeste 20 Norte 0 905.3 1 47
2019-10-09 20:00:00 19 6 Norte 23 Norte 0 905 0.4 42
2019-10-09 19:00:00 21.5 8 Norte 21 Norte 0 904.6 -0.3 39
2019-10-09 18:00:00 22.5 10 Norte 23 Norte 0 904.3 -0.6 37
2019-10-09 17:00:00 22.7 12 Norte 32 Norte 0 904.6 -0.5 37
2019-10-09 16:00:00 24.1 10 Norte 26 Nordeste 0 904.9 -0.7 35
2019-10-09 15:00:00 23.4 11 Nordeste 29 Nordeste 0 904.9 -1.1 35
2019-10-09 14:00:00 22.5 14 Norte 33 Norte 0 905.1 -0.8 34
2019-10-09 13:00:00 21.1 12 Nordeste 23 Nordeste 0 905.6 0.1 49
2019-10-09 12:00:00 19.4 13 Noroeste 28 Noroeste 0 906 0.9 59
2019-10-09 11:00:00 19 13 Noroeste 30 Noroeste 0 905.9 0.5 63
2019-10-09 10:00:00 17.8 4 Noroeste 15 Norte 0 905.5 0.9 71
2019-10-09 09:00:00 16.6 7 Norte 19 Norte 0 905.1 0.8 76
2019-10-09 08:00:00 16 4 Oeste 21 Norte 0 905.4 1.1 76
2019-10-09 07:00:00 13.1 9 Noroeste 21 Noroeste 0 904.6 -0.2 89
2019-10-09 06:00:00 11.1 0 Calma 9 Noroeste 0 904.3 -0.6 88
2019-10-09 05:00:00 11.6 3 Noroeste 8 Noroeste 0 904.3 -0.8 85
2019-10-09 04:00:00 12 6 Noroeste 9 Noroeste 0 904.8 -0.7 84
2019-10-09 03:00:00 12.3 0 Calma 11 Oeste 0 904.9 -0.9 79
2019-10-09 02:00:00 11.6 2 Noroeste 7 Oeste 0 905.1 -0.7 80
2019-10-09 01:00:00 12.6 0 Calma 5 Noroeste 0 905.5 0.1 76
2019-10-09 00:00:00 13.1 0 Calma 7 Noroeste 0 905.8 0.4 74
2019-10-08 23:00:00 14.2 0 Calma 5 Norte 0 905.8 0.8 69
2019-10-08 22:00:00 15.7 3 Noroeste 6 Noroeste 0 905.4 0.6 63
2019-10-08 21:00:00 18.2 0 Calma 9 Sudeste 0 905.4 0.5 51
2019-10-08 20:00:00 22.1 4 Este 10 Este 0 905 0 40
2019-10-08 19:00:00 24.5 4 Este 17 Este 0 904.8 -0.7 37
2019-10-08 18:00:00 24.8 6 Sudeste 17 Sudeste 0 904.9 -1 36
2019-10-08 17:00:00 25.4 8 Sudeste 20 Sudeste 0 905 -1.6 35
2019-10-08 16:00:00 25.5 6 Sudeste 15 Este 0 905.5 -1.7 36
2019-10-08 15:00:00 24.8 6 Este 18 Este 0 905.9 -1.8 37
2019-10-08 14:00:00 23.7 5 Este 15 Este 0 906.6 -1 39
2019-10-08 13:00:00 22.4 6 Este 14 Este 0 907.2 -0.2 41
2019-10-08 12:00:00 21.4 3 Sudeste 10 Este 0 907.7 0.5 43
2019-10-08 11:00:00 19 2 Sudeste 6 Noroeste 0 907.6 0.7 53
2019-10-08 10:00:00 13.9 4 Oeste 9 Oeste 0 907.4 0.5 71
2019-10-08 09:00:00 10.2 0 Calma 5 Sudoeste 0 907.2 0.6 84
2019-10-08 08:00:00 9.4 2 Norte 9 Noroeste 0 906.9 -0.1 83
2019-10-08 07:00:00 9.1 0 Calma 7 Oeste 0 906.9 -0.2 84
2019-10-08 06:00:00 9 0 Calma 6 Noroeste 0 906.6 -0.7 83
2019-10-08 05:00:00 10.4 4 Noroeste 9 Oeste 0 907 -0.5 80
2019-10-08 04:00:00 10.1 5 Oeste 9 Oeste 0 907.1 -0.6 76
2019-10-08 03:00:00 11.7 6 Noroeste 10 Noroeste 0 907.3 -0.5 75
2019-10-08 02:00:00 11.4 0 Calma 7 Noroeste 0 907.5 -0.3 71
2019-10-08 01:00:00 12.7 5 Oeste 9 Oeste 0 907.7 0 67
2019-10-08 00:00:00 13.7 3 Oeste 9 Sudoeste 0 907.8 0.6 60
2019-10-07 23:00:00 15.1 3 Noroeste 10 Nordeste 0 907.8 0.8 54
2019-10-07 22:00:00 18 0 Calma 18 Noroeste 0 907.7 0.8 43
2019-10-07 21:00:00 18.7 8 Norte 15 Norte 0 907.2 0.3 43
2019-10-07 20:00:00 20.4 0 Calma 14 Noroeste 0 907 0.2 39
2019-10-07 19:00:00 23.7 7 Noroeste 22 Oeste 0 906.9 -0.1 34
2019-10-07 18:00:00 24 13 Noroeste 22 Oeste 0 906.9 -0.4 34
2019-10-07 17:00:00 24.5 8 Noroeste 22 Norte 0 906.8 -0.8 34
2019-10-07 16:00:00 24.3 12 Noroeste 22 Noroeste 0 907 -0.6 34
2019-10-07 15:00:00 23.7 10 Norte 31 Nordeste 0 907.3 -0.4 33
2019-10-07 14:00:00 23.7 10 Norte 26 Norte 0 907.6 0 33
2019-10-07 13:00:00 22.7 10 Noroeste 21 Oeste 0 907.6 0.5 33
2019-10-07 12:00:00 22.8 0 Calma 15 Nordeste 0 907.7 0.8 31
2019-10-07 11:00:00 21.5 5 Sudeste 14 Sudoeste 0 907.6 1.3 32
2019-10-07 10:00:00 19.2 3 Nordeste 24 Oeste 0 907.1 1 38
2019-10-07 09:00:00 17.5 5 Oeste 29 Noroeste 0 906.9 1 38
2019-10-07 08:00:00 14.3 0 Calma 12 Este 0 906.3 -0.2 54
2019-10-07 07:00:00 14 0 Calma 11 Norte 0 906.1 -0.4 57
2019-10-07 06:00:00 13.1 0 Calma 14 Nordeste 0 905.9 -1 62
2019-10-07 05:00:00 13.7 4 Norte 15 Este 0 906.5 -0.6 60
2019-10-07 04:00:00 13 2 Este 12 Sudoeste 0 906.5 -0.8 63
2019-10-07 03:00:00 13 2 Norte 9 Norte 0 906.9 -0.8 63
2019-10-07 02:00:00 13.1 2 Nordeste 5 Este 0 907.1 -0.6 63
2019-10-07 01:00:00 13.3 0 Calma 8 Noroeste 0 907.3 0 58
2019-10-07 00:00:00 14.4 2 Norte 11 Nordeste 0 907.7 0.8 53
2019-10-06 23:00:00 14.4 2 Norte 9 Oeste 0 907.7 1 50
2019-10-06 22:00:00 17 4 Noroeste 22 Noroeste 0 907.3 0.7 41
2019-10-06 21:00:00 18.9 7 Noroeste 22 Noroeste 0 906.9 0.6 36
2019-10-06 20:00:00 19.5 4 Noroeste 17 Noroeste 0 906.7 0 36
2019-10-06 19:00:00 22.2 9 Noroeste 24 Oeste 0 906.6 -0.3 31
2019-10-06 18:00:00 22.7 14 Noroeste 30 Noroeste 0 906.3 -0.8 31
2019-10-06 17:00:00 23.1 13 Noroeste 23 Noroeste 0 906.7 -0.3 32
2019-10-06 16:00:00 23.4 12 Noroeste 26 Noroeste 0 906.9 -0.6 33
2019-10-06 15:00:00 23.1 13 Noroeste 28 Norte 0 907.1 -0.4 36
2019-10-06 14:00:00 22.6 12 Norte 26 Norte 0 907 -0.8 38
2019-10-06 13:00:00 21.6 7 Noroeste 17 Norte 0 907.5 0.4 41
2019-10-06 12:00:00 20.7 3 Sur 12 Oeste 0 907.5 0.8 40
2019-10-06 11:00:00 16.7 8 Oeste 12 Noroeste 0 907.8 1.6 48
2019-10-06 10:00:00 12.5 5 Oeste 13 Oeste 0 907.1 1.6 58
2019-10-06 09:00:00 9.7 6 Oeste 17 Oeste 0 906.7 0.7 74
2019-10-06 08:00:00 7.3 0 Calma 7 Oeste 0 906.2 0.6 84
2019-10-06 07:00:00 8.5 6 Noroeste 14 Noroeste 0 905.5 -0.3 83
2019-10-06 06:00:00 9.1 2 Oeste 9 Oeste 0 906 0.1 81
2019-10-06 05:00:00 9.6 0 Calma 10 Oeste 0 905.6 -0.7 79
2019-10-06 04:00:00 9.3 3 Sudeste 10 Noroeste 0 905.8 -0.2 77
2019-10-06 03:00:00 10.7 3 Noroeste 8 Oeste 0 905.9 0 74
2019-10-06 02:00:00 12.6 4 Oeste -- -- -- 906.3 0.7 68
2019-10-06 01:00:00 11.6 5 Noroeste 9 Noroeste 0 906 0.6 70
2019-10-06 00:00:00 12.7 3 Noroeste 12 Oeste 0 905.9 0.9 62
2019-10-05 23:00:00 13.7 3 Nordeste 9 Norte 0 905.6 0.9 55
2019-10-05 22:00:00 15.8 0 Calma 15 Oeste 0 905.4 1.5 48
2019-10-05 21:00:00 16.7 3 Norte 11 Noroeste 0 905 1.3 45
2019-10-05 20:00:00 20.3 3 Noroeste 10 Norte 0 904.7 1.1 39
2019-10-05 19:00:00 24 0 Calma 12 Sur 0 903.9 0 38
2019-10-05 18:00:00 24.2 2 Noroeste 14 Sudeste 0 903.7 -0.4 34
2019-10-05 17:00:00 24.1 5 Sur 13 Sudeste 0 903.6 -1.1 37
2019-10-05 16:00:00 24.3 4 Este 16 Sur 0 903.9 -1 38
2019-10-05 15:00:00 23.7 4 Nordeste 13 Este 0 904.1 -0.9 37
2019-10-05 14:00:00 22.9 6 Nordeste 12 Nordeste 0 904.7 -0.3 36
2019-10-05 13:00:00 21.9 4 Este 11 Sudeste 0 904.9 0 39
2019-10-05 12:00:00 20.4 0 Calma 8 Oeste 0 905 0.5 44
2019-10-05 11:00:00 17.2 0 Calma 6 Oeste 0 905 1 55
2019-10-05 10:00:00 13.7 0 Calma 7 Oeste 0 904.9 1 72
2019-10-05 09:00:00 9.4 5 Oeste 8 Oeste 0 904.5 0.6 90
2019-10-05 08:00:00 8.1 2 Noroeste 8 Noroeste 0 904 0.1 90
2019-10-05 07:00:00 9.4 2 Oeste 10 Oeste 0 903.9 -0.1 88
2019-10-05 06:00:00 9.4 4 Oeste 8 Oeste 0 903.9 -0.5 89
2019-10-05 05:00:00 10.4 2 Noroeste 11 Oeste 0 903.9 -0.7 89
2019-10-05 04:00:00 10.6 0 Calma 8 Oeste 0 904 -0.8 90
2019-10-05 03:00:00 10.9 3 Noroeste 7 Noroeste 0 904.4 -0.3 89
2019-10-05 02:00:00 11.5 0 Calma 7 Oeste 0 904.6 -0.1 87
2019-10-05 01:00:00 12.3 4 Noroeste 8 Noroeste 0 904.8 0.5 83
2019-10-05 00:00:00 13.1 3 Oeste 8 Noroeste 0 904.7 0.6 77
2019-10-04 23:00:00 14.3 4 Noroeste 8 Noroeste 0 904.7 0.9 75
2019-10-04 22:00:00 13.8 4 Noroeste 5 Noroeste 0 904.3 0.7 69
2019-10-04 21:00:00 16.8 0 Calma 8 Nordeste 0 904.1 0.7 55
2019-10-04 20:00:00 19.9 2 Nordeste 8 Sudeste 0 903.8 0.1 43
2019-10-04 19:00:00 23 4 Sudeste 13 Este 0 903.6 -0.6 36
2019-10-04 18:00:00 23.4 6 Sudeste 14 Sur 0 903.4 -1.4 36
2019-10-04 17:00:00 24.3 3 Sur 19 Oeste 0 903.7 -1.7 38
2019-10-04 16:00:00 24.3 2 Sudeste 14 Noroeste 0 904.2 -1.6 38
2019-10-04 15:00:00 23.6 5 Sudeste 14 Sudeste 0 904.8 -1.4 36
2019-10-04 14:00:00 22.4 6 Sudeste 16 Sudeste 0 905.4 -0.9 37
2019-10-04 13:00:00 21.7 5 Sudeste 16 Sudeste 0 905.8 -0.4 39
2019-10-04 12:00:00 20 3 Este 9 Este 0 906.2 0.1 42
2019-10-04 11:00:00 17.5 0 Calma 4 Sudeste 0 906.3 0.6 56
2019-10-04 10:00:00 13.1 0 Calma 6 Oeste 0 906.2 0.4 72
2019-10-04 09:00:00 8.4 2 Noroeste 6 Noroeste 0 906.1 0.4 85
2019-10-04 08:00:00 6.6 0 Calma 5 Oeste 0 905.7 -0.1 87
2019-10-04 07:00:00 6.8 0 Calma 7 Noroeste 0 905.8 0 83
2019-10-04 06:00:00 7.7 4 Oeste 8 Noroeste 0 905.7 -0.5 81
2019-10-04 05:00:00 7.9 3 Oeste 12 Oeste 0 905.8 -0.2 76
2019-10-04 04:00:00 8.7 6 Noroeste 12 Oeste 0 905.8 -0.9 76
2019-10-04 03:00:00 9.4 4 Noroeste 9 Sudoeste 0 906.2 -0.6 71
2019-10-04 02:00:00 10.7 4 Noroeste 9 Noroeste 0 906 -0.5 66
2019-10-04 01:00:00 11.1 2 Noroeste 9 Noroeste 0 906.7 0.5 63
2019-10-04 00:00:00 11.9 4 Noroeste 8 Oeste 0 906.8 0.7 56
2019-10-03 23:00:00 14.3 7 Oeste 13 Norte 0 906.5 1 48
2019-10-03 22:00:00 16.7 7 Norte 14 Norte 0 906.2 0.8 45
2019-10-03 21:00:00 15.9 3 Noroeste 14 Noroeste 0 906.1 0.9 43
2019-10-03 20:00:00 19.4 7 Noroeste 21 Noroeste 0 905.5 0.2 35
2019-10-03 19:00:00 21.5 11 Noroeste 32 Noroeste 0 905.4 -0.2 32
2019-10-03 18:00:00 22.2 14 Noroeste 39 Noroeste 0 905.2 -0.2 33
2019-10-03 17:00:00 22.4 17 Noroeste 33 Norte 0 905.3 -0.8 32
2019-10-03 16:00:00 22.7 16 Noroeste 32 Noroeste 0 905.6 -0.6 34
2019-10-03 15:00:00 23 13 Noroeste 24 Noroeste 0 905.4 -1.4 33
2019-10-03 14:00:00 21.7 9 Noroeste 21 Norte 0 906.1 -0.6 34
2019-10-03 13:00:00 20.6 5 Sudoeste 24 Noroeste 0 906.2 -0.4 39
2019-10-03 12:00:00 18.6 12 Noroeste 23 Oeste 0 906.8 0.7 45
2019-10-03 11:00:00 16.5 3 Sur 10 Oeste 0 906.7 0.9 58
2019-10-03 10:00:00 10.4 3 Oeste 12 Oeste 0 906.6 1.1 66
2019-10-03 09:00:00 7.2 3 Oeste 12 Oeste 0 906.1 0.5 75
2019-10-03 08:00:00 6.8 5 Noroeste 10 Oeste 0 905.8 0.1 76
2019-10-03 07:00:00 6.7 3 Noroeste 11 Oeste 0 905.5 -0.3 76
2019-10-03 06:00:00 7.2 4 Oeste 10 Sudoeste 0 905.6 -0.7 76
2019-10-03 05:00:00 7.7 3 Noroeste 14 Oeste 0 905.7 -0.9 76
2019-10-03 04:00:00 7.7 6 Oeste 14 Oeste 0 905.8 -1.2 76
2019-10-03 03:00:00 8.3 6 Oeste 12 Oeste 0 906.3 -0.9 77
2019-10-03 02:00:00 8.3 2 Noroeste 11 Oeste 0 906.6 -0.4 74
2019-10-03 01:00:00 9.1 5 Oeste 8 Oeste 0 907 0.3 70
2019-10-03 00:00:00 10.8 4 Sur 15 Noroeste 0 907.2 0.8 63
2019-10-02 23:00:00 14 8 Noroeste 23 Noroeste 0 907 0.7 55
2019-10-02 22:00:00 13.1 6 Nordeste 19 Noroeste 0 906.7 0.8 56
2019-10-02 21:00:00 16.3 9 Noroeste 23 Noroeste 0 906.4 1 49
2019-10-02 20:00:00 16.5 6 Noroeste 23 Norte 0 906.3 0.6 48
2019-10-02 19:00:00 18 8 Noroeste 23 Noroeste 0 905.9 0 46
2019-10-02 18:00:00 18.2 8 Noroeste 24 Norte 0 905.4 -0.5 46
2019-10-02 17:00:00 18.1 9 Noroeste 24 Noroeste 0 905.7 -0.4 46
2019-10-02 16:00:00 17.9 13 Noroeste 24 Noroeste 0 905.9 -0.1 47
2019-10-02 15:00:00 17.2 12 Noroeste 33 Oeste 0 905.9 -0.5 49
2019-10-02 14:00:00 16.8 15 Noroeste 28 Oeste 0 906.1 0 52
2019-10-02 13:00:00 16.7 9 Noroeste 24 Noroeste 0 906 1.1 52
2019-10-02 12:00:00 14.2 5 Noroeste 27 Nordeste 0 906.4 1.9 63
2019-10-02 11:00:00 12.4 2 Nordeste 26 Oeste 0 906.1 1.8 68
2019-10-02 10:00:00 11.9 14 Noroeste 31 Noroeste 0 904.9 1.1 67
2019-10-02 09:00:00 11.2 18 Noroeste 32 Noroeste 0 904.5 0.6 69
2019-10-02 08:00:00 11.7 14 Noroeste 30 Noroeste 0 904.3 0.3 69
2019-10-02 07:00:00 12.1 14 Noroeste 28 Noroeste 0 903.8 0.1 69
2019-10-02 06:00:00 12.7 10 Oeste 31 Noroeste 0 903.9 0 67
2019-10-02 05:00:00 12.9 6 Oeste 30 Noroeste 0 904 0.2 67
2019-10-02 04:00:00 13.7 9 Oeste 37 Oeste 0 903.7 -0.3 63
2019-10-02 03:00:00 14.6 8 Oeste 28 Oeste 0 903.9 -0.3 61
2019-10-02 02:00:00 15.2 5 Oeste 26 Oeste 0 903.8 0.1 61
2019-10-02 01:00:00 16.7 7 Oeste 26 Sudoeste 0 904 0.9 56
2019-10-02 00:00:00 17.2 7 Sudoeste 24 Sudoeste 0 904.2 1.4 55
2019-10-01 23:00:00 16.4 4 Oeste 11 Sudoeste 0 903.7 0.9 60
2019-10-01 22:00:00 16 5 Oeste 13 Noroeste 0 903.1 0.3 61
2019-10-01 21:00:00 14.9 3 Oeste 9 Oeste 0 902.8 0.9 61
2019-10-01 20:00:00 18.2 8 Oeste 34 Oeste 0 902.8 0.6 51
2019-10-01 19:00:00 19.6 14 Oeste 32 Oeste 0 902.8 0.7 49
2019-10-01 18:00:00 20.1 20 Noroeste 34 Noroeste 0 901.9 -0.7 49
2019-10-01 17:00:00 21.1 13 Oeste 31 Oeste 0 902.2 -0.5 47
2019-10-01 16:00:00 21 13 Noroeste 31 Noroeste 0 902.1 -0.9 45
2019-10-01 15:00:00 20.9 15 Noroeste 35 Noroeste 0 902.6 -0.6 46
2019-10-01 14:00:00 20.5 6 Noroeste 27 Nordeste 0 902.7 -0.1 53
2019-10-01 13:00:00 19.7 9 Norte 28 Oeste 0 903 0.9 59
2019-10-01 12:00:00 19 14 Noroeste 32 Noroeste 0 903.2 1.3 63
2019-10-01 11:00:00 19.6 13 Noroeste 24 Norte 0 902.8 1 59
2019-10-01 10:00:00 15.4 5 Oeste 12 Norte 0 902.1 -- 65
2019-10-01 09:00:00 10.6 0 Calma 15 Oeste 0 901.9 -- 77
2019-10-01 08:00:00 9.4 3 Noroeste 10 Noroeste 0 901.8 -0.3 76
2019-10-01 07:00:00 -- -- -- -- -- -- -- -- --
2019-10-01 06:00:00 -- -- -- -- -- -- -- -- --
2019-10-01 05:00:00 8.6 0 Calma -- -- -- 902.1 -1.6 80
2019-10-01 04:00:00 9 0 Calma 7 Noroeste 0 902.6 -1.3 80
2019-10-01 03:00:00 9.8 0 Calma 6 Oeste 0 903.3 -0.7 76
2019-10-01 02:00:00 11 0 Calma 7 Noroeste 0 903.7 -0.2 73
2019-10-01 01:00:00 -- 3 Noroeste -- -- -- 903.9 -0.2 --
2019-10-01 00:00:00 12.4 4 Noroeste 9 Oeste 0 904 0.4 68
2019-09-30 23:00:00 12.9 0 Calma 4 Norte 0 903.9 0.3 61
2019-09-30 22:00:00 14.2 3 Noroeste 5 Noroeste 0 904.1 0.4 58
2019-09-30 21:00:00 16.9 0 Calma 8 Noroeste 0 903.6 0 46
2019-09-30 20:00:00 20.5 5 Noroeste 11 Sur 0 903.6 -0.6 36
2019-09-30 19:00:00 24.6 6 Sudeste 18 Sudeste 0 903.7 -0.9 27
2019-09-30 18:00:00 25.2 7 Sudeste 17 Sudeste 0 903.6 -1.5 28
2019-09-30 17:00:00 25.7 8 Este -- -- 0 904.2 -1.6 28
2019-09-30 16:00:00 25.5 6 Este 17 Este 0 904.6 -1.7 30
2019-09-30 15:00:00 25.3 3 Nordeste 12 Noroeste 0 905.1 -1.5 31
2019-09-30 14:00:00 24.1 6 Este 14 Este 0 905.8 -1 34
2019-09-30 13:00:00 23.9 3 Sudeste 10 Sudeste 0 906.3 -0.4 35
2019-09-30 12:00:00 21.9 0 Calma -- -- 0 906.6 0.4 41
2019-09-30 11:00:00 18.5 0 Calma 6 Sudeste 0 906.8 -- 51
2019-09-30 10:00:00 13.8 0 Calma -- -- 0 906.7 1 67
2019-09-30 09:00:00 10.3 0 Calma -- -- -- 906.2 0.4 81
2019-09-30 08:00:00 -- 0 Calma -- -- -- -- -- --
2019-09-30 07:00:00 8.9 3 Noroeste 9 Oeste 0 905.7 -0.6 76
2019-09-30 06:00:00 9.4 3 Noroeste 10 Oeste 0 905.8 -0.8 73
2019-09-30 05:00:00 10.6 0 Calma 11 Oeste 0 906 -0.6 69
2019-09-30 04:00:00 9.9 4 Noroeste 7 Oeste 0 906.3 -0.6 73
2019-09-30 03:00:00 10.7 4 Noroeste 10 Sur 0 906.6 -0.5 69
2019-09-30 02:00:00 11.1 4 Noroeste 8 Norte 0 906.6 -0.2 67
2019-09-30 01:00:00 12 0 Calma 7 Norte 0 906.9 0.4 63
2019-09-30 00:00:00 11.6 3 Sudeste 8 Sudeste 0 907.1 1.1 65
2019-09-29 23:00:00 13.2 3 Noroeste 6 Noroeste 0 906.8 1 58
2019-09-29 22:00:00 14.9 0 Calma 6 Noroeste 0 906.5 0.9 49
2019-09-29 21:00:00 17 0 Calma 10 Oeste 0 906 0.5 41
2019-09-29 20:00:00 21.1 5 Noroeste 10 Oeste 0 905.8 0.1 31
2019-09-29 19:00:00 25.2 6 Oeste 18 Noroeste 0 905.6 -0.4 26
2019-09-29 18:00:00 25.5 8 Noroeste 18 Oeste 0 905.5 -1.1 26
2019-09-29 17:00:00 26 4 Sudeste 17 Sudeste 0 905.7 -1.4 28
2019-09-29 16:00:00 26.6 4 Sur 15 Sudoeste 0 906 -1.2 29
2019-09-29 15:00:00 25.8 3 Este 12 Sudeste 0 906.6 -0.6 28
2019-09-29 14:00:00 24.5 6 Este 40 Este 0 907.1 -0.1 31
2019-09-29 13:00:00 23.1 6 Este 13 Este 0 907.2 0.5 32
2019-09-29 12:00:00 21.5 0 Calma 7 Sudeste 0 907.2 0.6 40
2019-09-29 11:00:00 18.1 0 Calma 5 Sudeste 0 907.2 0.6 51
2019-09-29 10:00:00 13.4 4 Nordeste 5 Nordeste 0 906.7 0.6 67
2019-09-29 09:00:00 9.5 2 Noroeste 11 Oeste 0 906.6 0.3 76
2019-09-29 08:00:00 6.9 0 Calma 5 Oeste 0 906.6 0.3 83
2019-09-29 07:00:00 7.2 0 Calma 6 Noroeste 0 906.1 -0.6 84
2019-09-29 06:00:00 8.1 3 Noroeste 7 Noroeste 0 906.3 -0.6 82
2019-09-29 05:00:00 8.3 0 Calma 9 Noroeste 0 906.3 -0.6 80
2019-09-29 04:00:00 8.7 0 Calma 8 Noroeste 0 906.7 -0.6 80
2019-09-29 03:00:00 8.8 3 Noroeste 6 Noroeste 0 906.9 -0.4 79
2019-09-29 02:00:00 10 4 Oeste 6 Oeste 0 906.9 -0.5 76
2019-09-29 01:00:00 11.4 0 Calma 7 Oeste 0 907.3 0.1 71
2019-09-29 00:00:00 11.9 0 Calma 6 Noroeste 0 907.3 0.3 69
2019-09-28 23:00:00 12.8 2 Noroeste 6 Noroeste 0 907.4 0.8 67
2019-09-28 22:00:00 14.8 0 Calma 5 Sur 0 907.2 0.5 56
2019-09-28 21:00:00 17 0 Calma 5 Norte 0 907 0.3 46
2019-09-28 20:00:00 21.3 3 Nordeste 15 Sudeste 0 906.6 -0.3 34
2019-09-28 19:00:00 23.9 5 Sudeste 18 Sur 0 906.7 -0.5 31
2019-09-28 18:00:00 24.3 8 Sudeste 17 Sudeste 0 906.7 -0.8 32
2019-09-28 17:00:00 24.7 7 Sudeste 18 Sudeste 0 906.9 -1.1 31
2019-09-28 16:00:00 25.2 4 Sur 15 Sudeste 0 907.2 -1.2 30
2019-09-28 15:00:00 24.4 5 Sudeste 17 Sudeste 0 907.5 -1.5 31
2019-09-28 14:00:00 23.7 3 Nordeste 176 Este 0 908 -0.8 31
2019-09-28 13:00:00 22.7 0 Calma 8 Este 0 908.4 0 34
2019-09-28 12:00:00 20.9 3 Sudeste 8 Sudeste 0 909 0.9 40
2019-09-28 11:00:00 16.7 3 Oeste 9 Oeste 0 908.8 1.2 51
2019-09-28 10:00:00 12.6 3 Oeste 8 Oeste 0 908.4 -- 63
2019-09-28 09:00:00 8.9 0 Calma 8 Noroeste 0 908.1 0.8 79
2019-09-28 08:00:00 7.6 4 Noroeste -- -- 0 907.6 0.2 83
2019-09-28 07:00:00 -- -- -- -- -- -- -- -- --
2019-09-28 06:00:00 8 4 Oeste 7 Oeste 0 907.3 -0.5 83
2019-09-28 05:00:00 9.1 3 Noroeste 10 Oeste 0 907.4 -0.3 76
2019-09-28 04:00:00 10.6 5 Oeste 9 Oeste 0 907.4 -0.4 72
2019-09-28 03:00:00 10.4 3 Oeste 6 Oeste 0 907.8 -0.1 73
2019-09-28 02:00:00 10.6 4 Noroeste 6 Oeste 0 907.7 0 70
2019-09-28 01:00:00 11.2 3 Noroeste -- -- -- 907.8 0.3 64
2019-09-28 00:00:00 11.7 2 Noroeste 7 Noroeste 0 907.9 1 60
2019-09-27 23:00:00 12.7 0 Calma 8 Sur 0 907.7 1.1 52
2019-09-27 22:00:00 14.9 3 Noroeste 14 Noroeste 0 907.5 1.1 40
2019-09-27 21:00:00 17.2 10 Noroeste 17 Noroeste 0 906.9 0.9 33
2019-09-27 20:00:00 20.5 4 Oeste 19 Noroeste 0 906.6 0.6 27
2019-09-27 19:00:00 23.3 9 Noroeste 22 Noroeste 0 906.4 0.5 25
2019-09-27 18:00:00 23.7 13 Noroeste 31 Noroeste 0 906 -0.4 25
2019-09-27 17:00:00 24.6 15 Noroeste 27 Noroeste 0 906 -0.8 25
2019-09-27 16:00:00 24.9 4 Nordeste 15 Sudeste 0 905.9 -1.4 29
2019-09-27 15:00:00 24.7 3 Sudeste 14 Este 0 906.4 -1.1 27
2019-09-27 14:00:00 24 5 Nordeste 15 Norte 0 906.8 -0.8 27
2019-09-27 13:00:00 23.3 3 Este 10 Nordeste 0 907.3 0.2 29
2019-09-27 12:00:00 22.3 0 Calma 9 Noroeste 0 907.5 0.6 33
2019-09-27 11:00:00 18.2 2 Oeste 9 Oeste 0 907.6 1 45
2019-09-27 10:00:00 14.3 4 Oeste 8 Oeste 0 907.1 0.3 58
2019-09-27 09:00:00 11.1 3 Oeste 6 Oeste 0 906.9 0.2 74
2019-09-27 08:00:00 8.8 3 Noroeste 6 Noroeste 0 906.6 0 79
2019-09-27 07:00:00 9.6 4 Noroeste 7 Noroeste 0 906.8 0.2 80
2019-09-27 06:00:00 9.9 0 Calma 7 Noroeste 0 906.7 -0.3 77
2019-09-27 05:00:00 10.7 4 Oeste 7 Oeste 0 906.6 -0.5 80
2019-09-27 04:00:00 10.7 0 Calma 4 Noroeste 0 906.6 -0.9 83
2019-09-27 03:00:00 11.1 0 Calma 5 Noroeste 0 907 -0.6 81
2019-09-27 02:00:00 12.1 0 Calma 5 Noroeste 0 907.1 -0.3 77
2019-09-27 01:00:00 12.4 2 Noroeste 5 Noroeste 0 907.5 0.3 74
2019-09-27 00:00:00 13.4 2 Noroeste 6 Oeste 0 907.6 1.1 73
2019-09-26 23:00:00 14.5 3 Noroeste 5 Noroeste 0 907.4 1.4 71
2019-09-26 22:00:00 16.8 0 Calma 5 Norte 0 907.2 1.3 58
2019-09-26 21:00:00 19 3 Nordeste 9 Oeste 0 906.5 0.6 47
2019-09-26 20:00:00 21.3 0 Calma 14 Sudeste 0 906 -0.1 40
2019-09-26 19:00:00 23.6 4 Este 17 Sur 0 905.9 -0.4 36
2019-09-26 18:00:00 23.7 7 Sudeste 18 Este 0 905.9 -0.9 37
2019-09-26 17:00:00 24.1 6 Este -- -- 0 906.1 -0.9 36
2019-09-26 16:00:00 23.7 6 Sudeste 17 Sudeste 0 906.3 -- 37
2019-09-26 15:00:00 22.8 7 Sudeste 17 Sudeste 0 906.8 -1.1 38
2019-09-26 14:00:00 21.9 6 Sudeste -- -- -- 907 -0.9 40
2019-09-26 13:00:00 -- -- -- -- -- -- -- -- --
2019-09-26 12:00:00 19.7 3 Sudeste 8 Nordeste 0 907.9 1 45
2019-09-26 11:00:00 17.7 0 Calma 5 Este 0 907.9 1.4 51
2019-09-26 10:00:00 14.5 0 Calma 6 Oeste 0 907.6 1.5 67
2019-09-26 09:00:00 10.4 0 Calma 4 Noroeste 0 906.9 0.7 84
2019-09-26 08:00:00 8.6 3 Noroeste 6 Oeste 0 906.5 0.3 85
2019-09-26 07:00:00 9.3 5 Oeste 9 Oeste 0 906.1 -0.2 85
2019-09-26 06:00:00 9.3 4 Oeste 8 Oeste 0 906.2 -0.3 86
2019-09-26 05:00:00 9.5 0 Calma 7 Oeste 0 906.2 -0.3 81
2019-09-26 04:00:00 10.4 0 Calma 8 Oeste 0 906.3 -0.2 80
2019-09-26 03:00:00 10.5 0 Calma 8 Oeste 0 906.5 0 77
2019-09-26 02:00:00 10.9 3 Oeste 7 Oeste 0 906.5 0.1 77
2019-09-26 01:00:00 12 0 Calma 9 Noroeste 0 906.5 0.4 72
2019-09-26 00:00:00 13.1 5 Oeste 10 Oeste 0 906.5 0.9 71
2019-09-25 23:00:00 13.3 0 Calma 6 Noroeste 0 906.4 1 63
2019-09-25 22:00:00 15.1 0 Calma 9 Noroeste 0 906.1 1 54
2019-09-25 21:00:00 17 0 Calma 15 Nordeste 0 905.6 0.4 47
2019-09-25 20:00:00 17.8 8 Nordeste 17 Norte 0 905.4 0.6 45
2019-09-25 19:00:00 19.1 4 Nordeste 18 Noroeste 0 905.1 0.1 42
2019-09-25 18:00:00 19.9 9 Noroeste 21 Noroeste 0 905.2 -0.2 40
2019-09-25 17:00:00 20.5 12 Noroeste 23 Noroeste 0 904.8 -0.8 41
2019-09-25 16:00:00 20.7 12 Noroeste 26 Norte 0 905 -1.2 42
2019-09-25 15:00:00 19.6 9 Norte 25 Norte 0 905.4 -0.9 42
2019-09-25 14:00:00 18.2 12 Norte 29 Noroeste 0 905.6 -0.2 47
2019-09-25 13:00:00 17.1 13 Norte 30 Noroeste 0 906.2 0.6 49
2019-09-25 12:00:00 16.6 14 Noroeste 30 Noroeste 0 906.3 1 50
2019-09-25 11:00:00 15.4 10 Nordeste 26 Noroeste 0 905.8 1.2 55
2019-09-25 10:00:00 13.9 11 Noroeste 30 Noroeste 0 905.6 1 58
2019-09-25 09:00:00 12.6 12 Noroeste 30 Oeste 0 905.3 0.7 63
2019-09-25 08:00:00 12.2 9 Norte 28 Noroeste 0 904.6 0.1 64
2019-09-25 07:00:00 12.6 14 Noroeste 34 Noroeste 0 904.6 -0.4 63
2019-09-25 06:00:00 12.9 10 Norte 36 Oeste 0 904.6 -0.4 63
2019-09-25 05:00:00 13.6 15 Noroeste 35 Noroeste 0 904.5 -0.7 62
2019-09-25 04:00:00 13.7 17 Noroeste 36 Noroeste 0 905 -0.3 63
2019-09-25 03:00:00 14.3 19 Noroeste 37 Noroeste 0 905 -0.3 63
2019-09-25 02:00:00 15.9 16 Noroeste 26 Noroeste 0 905.2 -0.1 63
2019-09-25 01:00:00 16.7 8 Noroeste 26 Oeste 0 905.3 -0.1 62
2019-09-25 00:00:00 17.1 12 Noroeste 28 Oeste 0 905.3 0.3 63
2019-09-24 23:00:00 17.3 8 Oeste 39 Sudoeste 0 905.3 0 63
2019-09-24 22:00:00 18.2 17 Noroeste 43 Noroeste 0 905.4 0.7 60
2019-09-24 21:00:00 18.3 19 Noroeste 34 Oeste 0 905 0.1 63
2019-09-24 20:00:00 18.9 12 Oeste 21 Oeste 0 905.3 0.3 66
2019-09-24 19:00:00 20.1 10 Noroeste 24 Oeste 0 904.7 -0.4 60
2019-09-24 18:00:00 20.8 12 Oeste 22 Oeste 0 904.9 -0.6 56
2019-09-24 17:00:00 21.3 8 Oeste 24 Sudoeste 0 905 -1.3 53
2019-09-24 16:00:00 21.7 6 Sudoeste 17 Sur 0 905.1 -1.5 48
2019-09-24 15:00:00 20.6 6 Sudeste 14 Este 0 905.5 -1.3 44
2019-09-24 14:00:00 21.6 4 Sudoeste 22 Sudoeste 0 906.3 -0.6 43
2019-09-24 13:00:00 21.4 7 Sudoeste 20 Oeste 0 906.6 0.4 39
2019-09-24 12:00:00 20.1 5 Este 13 Este 0 906.8 0.7 43
2019-09-24 11:00:00 16.9 4 Este 10 Sudeste 0 906.9 0.8 58
2019-09-24 10:00:00 13.7 2 Sudeste 6 Sudeste 0 906.2 0.3 75
2019-09-24 09:00:00 9.9 3 Noroeste 7 Oeste 0 906.1 -0.1 88
2019-09-24 08:00:00 8.7 0 Calma 9 Noroeste 0 906.1 -0.1 88
2019-09-24 07:00:00 9.2 3 Noroeste 14 Oeste 0 905.9 -0.7 90
2019-09-24 06:00:00 8.8 0 Calma 4 Sudoeste 0 906.2 -0.9 89
2019-09-24 05:00:00 9.3 0 Calma 5 Noroeste 0 906.2 -1 90
2019-09-24 04:00:00 9.5 0 Calma 5 Nordeste 0 906.6 -1.1 89
2019-09-24 03:00:00 10.1 0 Calma 6 Noroeste 0 907.1 -0.8 88
2019-09-24 02:00:00 10.6 3 Noroeste 5 Noroeste 0 907.2 -0.9 86
2019-09-24 01:00:00 11.4 0 Calma 5 Noroeste 0 907.7 -0.3 84
2019-09-24 00:00:00 12.1 0 Calma 4 Noroeste 0 907.9 0.4 81
2019-09-23 23:00:00 13.1 2 Oeste 4 Noroeste 0 908.1 0.9 76
2019-09-23 22:00:00 14.8 0 Calma 6 Nordeste 0 908 1.1 63
2019-09-23 21:00:00 16.8 0 Calma 11 Este 0 907.5 0.6 54
2019-09-23 20:00:00 18.2 3 Este 12 Sudeste 0 907.2 0.2 49
2019-09-23 19:00:00 19.6 4 Sudeste 15 Sudeste 0 906.9 -0.1 45
2019-09-23 18:00:00 20.3 6 Este 15 Sudeste 0 906.9 -0.3 43
2019-09-23 17:00:00 20.7 4 Sudeste 17 Sur 0 907 -0.4 42
2019-09-23 16:00:00 19.7 7 Sudeste 18 Sudeste 0 907 -0.6 43
2019-09-23 15:00:00 19.4 7 Sudeste 16 Sudeste 0 907.2 -0.5 43
2019-09-23 14:00:00 19.1 4 Nordeste 13 Sudeste 0 907.4 -0.3 42
2019-09-23 13:00:00 18.3 4 Sudeste 14 Este 0 907.6 0.2 45
2019-09-23 12:00:00 16.9 5 Nordeste 9 Norte 0 907.7 0.6 46
2019-09-23 11:00:00 14.6 2 Sudeste 8 Sur 0 907.7 0.9 59
2019-09-23 10:00:00 11.1 2 Oeste 8 Oeste 0 907.4 1.1 75
2019-09-23 09:00:00 8.7 0 Calma 4 Oeste 0 907.1 1 88
2019-09-23 08:00:00 6.7 3 Noroeste 6 Noroeste 0 906.8 0.9 89
2019-09-23 07:00:00 6.8 2 Oeste 5 Oeste 0 906.3 0.8 88
2019-09-23 06:00:00 7.3 0 Calma 6 Noroeste 0 906.1 0.4 88
2019-09-23 05:00:00 7.3 0 Calma 4 Norte 0 905.9 0.2 87
2019-09-23 04:00:00 8.1 0 Calma 5 Sur 0 905.5 0 84
2019-09-23 03:00:00 8.9 0 Calma 5 Sur 0 905.7 0.5 81
2019-09-23 02:00:00 9.3 4 Norte 5 Noroeste 0 905.7 0.6 81
2019-09-23 01:00:00 10.2 0 Calma 8 Oeste 0 905.5 0.8 76
2019-09-23 00:00:00 10.8 3 Noroeste 4 Noroeste 0 905.2 1.2 73
2019-09-22 23:00:00 12.7 4 Oeste 11 Noroeste 0 905.1 1.9 60
2019-09-22 22:00:00 13.5 0 Calma 14 Sudeste 0 904.7 1.4 54
2019-09-22 21:00:00 14.4 7 Noroeste 17 Oeste 0 904 1.1 48
2019-09-22 20:00:00 16.7 5 Noroeste 21 Oeste 0 903.2 0.8 41
2019-09-22 19:00:00 17.6 11 Noroeste 28 Noroeste 0 903.3 1 40
2019-09-22 18:00:00 17.7 12 Noroeste 29 Noroeste 0 902.9 1 43
2019-09-22 17:00:00 18.7 15 Noroeste 34 Oeste 0 902.4 0.1 38
2019-09-22 16:00:00 18.3 18 Noroeste 32 Oeste 0 902.3 0.1 38
2019-09-22 15:00:00 18 15 Noroeste 33 Noroeste 0 901.9 -0.2 42
2019-09-22 14:00:00 16.7 15 Noroeste 29 Noroeste 0 902.3 0.5 49
2019-09-22 13:00:00 16.4 13 Noroeste 31 Noroeste 0 902.2 0.7 54
2019-09-22 12:00:00 16.7 14 Noroeste 26 Norte 0 902.1 1.1 60
2019-09-22 11:00:00 14.9 6 Oeste 17 Norte 0 901.8 1.6 70
2019-09-22 10:00:00 13.3 2 Norte 9 Nordeste 0 901.5 1.8 85
2019-09-22 09:00:00 12.4 3 Norte 10 Noroeste 0.4 901 2 86
2019-09-22 08:00:00 12.6 7 Noroeste 15 Nordeste 0.5 900.2 0.5 84
2019-09-22 07:00:00 14.4 0 Calma 9 Sudeste 0 899.7 -0.1 89
2019-09-22 06:00:00 14.5 4 Este 11 Sudeste 0 899 -1 90
2019-09-22 05:00:00 14.5 4 Este 13 Sur 0 899.7 -0.4 89
2019-09-22 04:00:00 14.5 6 Sudeste 19 Sur 0 899.8 -0.4 87
2019-09-22 03:00:00 14.6 9 Sudeste 21 Sudeste 0 900 -0.5 86
2019-09-22 02:00:00 15.1 11 Sudeste 22 Sudeste 0 900.1 -0.3 80
2019-09-22 01:00:00 14.6 3 Este 11 Sudeste 0 900.2 -0.3 85
2019-09-22 00:00:00 14.5 5 Este 12 Sudeste 0 900.5 0.3 85
2019-09-21 23:00:00 14.7 4 Este 12 Este 0 900.4 0.4 88
2019-09-21 22:00:00 15.2 5 Sudeste 17 Sur 0.1 900.5 0.3 86
2019-09-21 21:00:00 15.1 5 Sudeste 14 Sudeste 0 900.2 0 89
2019-09-21 20:00:00 15.4 4 Este 9 Este 0.3 900 -0.6 88
2019-09-21 19:00:00 16 2 Sudeste 6 Sudeste 0.6 900.2 -0.7 84
2019-09-21 18:00:00 16.6 3 Sudeste 14 Sudeste 0 900.2 -0.8 77
2019-09-21 17:00:00 16.7 8 Sudeste 16 Sudeste 0 900.6 -0.7 76
2019-09-21 16:00:00 16.7 8 Sudeste 19 Sudeste 0 900.9 -0.6 74
2019-09-21 15:00:00 16.9 10 Sudeste 27 Sudeste 0 901 -0.6 67
2019-09-21 14:00:00 16.7 13 Sudeste 24 Sudeste 0 901.3 -0.4 69
2019-09-21 13:00:00 16.8 10 Sudeste 21 Sudeste 0 901.5 -0.2 73
2019-09-21 12:00:00 15.7 6 Sudeste 15 Sudeste 0 901.6 0 80
2019-09-21 11:00:00 15.1 7 Sudeste 15 Este 0 901.7 0.3 84
2019-09-21 10:00:00 14.3 0 Calma 8 Sudeste 0 901.7 0.3 91
2019-09-21 09:00:00 13.3 2 Sur 6 Nordeste 0 901.6 0.3 92
2019-09-21 08:00:00 12 0 Calma 5 Oeste 0 901.4 0.1 92
2019-09-21 07:00:00 11.5 0 Calma 5 Noroeste 0 901.4 -0.2 92
2019-09-21 06:00:00 12.3 0 Calma 6 Noroeste 0.1 901.3 -0.6 92
2019-09-21 05:00:00 13.1 0 Calma 5 Oeste 0 901.3 -1.5 92
2019-09-21 04:00:00 13.2 0 Calma 9 Nordeste 1.1 901.6 -0.7 92
2019-09-21 03:00:00 13.1 6 Nordeste 15 Noroeste 4.2 901.9 -0.9 92
2019-09-21 02:00:00 13.2 6 Sur 13 Sur 4.9 902.8 -0.8 92
2019-09-21 01:00:00 13.2 5 Noroeste 10 Sudoeste 0.1 902.3 -0.1 92
2019-09-21 00:00:00 13.1 7 Norte 19 Norte 1.6 902.8 0.6 92
2019-09-20 23:00:00 13.1 5 Noroeste -- -- -- 903.6 2.1 92
2019-09-20 22:00:00 13.4 18 Noroeste 33 Norte 14.2 902.4 0.5 89
2019-09-20 21:00:00 16.7 17 Noroeste 28 Oeste 1.8 902.2 -0.1 76
2019-09-20 20:00:00 20 5 Sudeste 22 Sudeste 0 901.5 -1 58
2019-09-20 19:00:00 21.3 7 Sudeste 28 Sur 0 901.9 -1.2 54
2019-09-20 18:00:00 21.1 13 Sudeste 24 Sur 0 902.3 -1.4 54
2019-09-20 17:00:00 21.4 8 Sudeste 18 Sudeste 0 902.5 -1.8 56
2019-09-20 16:00:00 20.8 6 Sudeste 21 Sur 0 903.1 -1.4 55
2019-09-20 15:00:00 20.8 8 Sur 22 Sudeste 0 903.7 -1.5 56
2019-09-20 14:00:00 20.3 5 Sur 25 Sur 0 904.3 -0.8 57
2019-09-20 13:00:00 20.2 8 Sur 17 Sudeste 0.1 904.5 -0.6 57
2019-09-20 12:00:00 18.3 8 Sur 19 Sudeste 0 905.2 0.4 65
2019-09-20 11:00:00 18.2 3 Sudeste 8 Sudeste 0 905.1 0.6 72
2019-09-20 10:00:00 14.4 0 Calma 4 Noroeste 0 905.1 1 91
2019-09-20 09:00:00 12.5 0 Calma 4 Sur 0 904.8 0.5 92
2019-09-20 08:00:00 12.4 0 Calma 4 Noroeste 0 904.5 0.2 92
2019-09-20 07:00:00 12.1 0 Calma 5 Oeste 0 904.1 -0.5 92
2019-09-20 06:00:00 12.1 3 Oeste 6 Noroeste 0 904.3 -0.9 92
2019-09-20 05:00:00 12 0 Calma 3 Oeste 0 904.3 -1.2 92
2019-09-20 04:00:00 12.5 2 Noroeste 5 Noroeste 0 904.6 -0.9 92
2019-09-20 03:00:00 12.6 0 Calma 5 Oeste 0 905.2 -0.3 91
2019-09-20 02:00:00 13.1 4 Oeste 8 Oeste 0 905.5 0.1 91
2019-09-20 01:00:00 13.3 3 Oeste 6 Oeste 0 905.5 0.5 90
2019-09-20 00:00:00 14 6 Noroeste 13 Oeste 0 905.5 1 90